»·PEaware :: SWA2093 KLAS-KPHX

SWA2093 :: KLAS-KPHX

FLIGHT INFORMATION

Flight Status: Arrived
Operator:
Southwest Airlines
More flights by this operator :: More flights under this callsign
Pilot: Mitchell B. (10151)
Aircraft: BOEING 737-800
(B738)
More flights by this aircraft type
Origin: KLAS McCarran Intl
United States
Destination: KPHX Phoenix Sky Harbor Intl
United States
More flights between these airports :: More routes between these airports
Route: PRFUM4 PRFUM WOTRO BRUSR1
File this flight plan on PilotEdge
Remarks:
Altitude:
(Current/Filed)
29,000ft
Speed:
(Current/Filed)
455kts
Departed: 16-May-20 06:56 PM
Arrived: 16-May-20 07:45 PM
Distance/Time
Traveled:
222nm/0:48
Distance/Time
To Go:
Arrived

Flight Plot

Page will automatically refresh every two minutes.


Map Options




Map Legend


Flown Route
Filed Route
Departure Airport
Arrival Airport
Navaid (VOR, NDB)
Fix

Horizontal Profiles

Position Reports

Time Latitude Longitude Heading Altitude Ground
Speed
16-May-20 18:21 36.081335 -115.147955 62 2189ft 0kts
16-May-20 18:23 36.081335 -115.147955 62 2189ft 0kts
16-May-20 18:23 36.081335 -115.147955 62 2189ft 0kts
16-May-20 18:24 36.081335 -115.147955 62 2189ft 0kts
16-May-20 18:25 36.081335 -115.147955 62 2189ft 0kts
16-May-20 18:26 36.081335 -115.147955 62 2189ft 0kts
16-May-20 18:27 36.081335 -115.147955 62 2189ft 0kts
16-May-20 18:28 36.081335 -115.147955 62 2189ft 0kts
16-May-20 18:29 36.081335 -115.147955 62 2189ft 0kts
16-May-20 18:30 36.081335 -115.147955 62 2189ft 0kts
16-May-20 18:31 36.081335 -115.147955 62 2189ft 0kts
16-May-20 18:32 36.081335 -115.147955 62 2189ft 0kts
16-May-20 18:33 36.081335 -115.147955 62 2189ft 0kts
16-May-20 18:34 36.081335 -115.147955 62 2189ft 0kts
16-May-20 18:35 36.081335 -115.147955 62 2189ft 0kts
16-May-20 18:36 36.081335 -115.147955 62 2189ft 0kts
16-May-20 18:37 36.081335 -115.147955 62 2189ft 0kts
16-May-20 18:38 36.081335 -115.147955 62 2189ft 0kts
16-May-20 18:39 36.081335 -115.147955 62 2189ft 0kts
16-May-20 18:40 36.081106 -115.148317 30 2189ft 2kts
16-May-20 18:41 36.080734 -115.148325 335 2189ft 0kts
16-May-20 18:42 36.080734 -115.148325 335 2189ft 0kts
16-May-20 18:43 36.080734 -115.148325 335 2189ft 0kts
16-May-20 18:44 36.080734 -115.148325 335 2189ft 0kts
16-May-20 18:45 36.080734 -115.148325 335 2189ft 0kts
16-May-20 18:46 36.080810 -115.148366 336 2189ft 4kts
16-May-20 18:47 36.081548 -115.148915 260 2189ft 1kts
16-May-20 18:48 36.081118 -115.150410 253 2189ft 13kts
16-May-20 18:49 36.081619 -115.154766 299 2189ft 15kts
16-May-20 18:50 36.085076 -115.156978 335 2189ft 12kts
16-May-20 18:51 36.088299 -115.157232 25 2189ft 15kts
16-May-20 18:52 36.091797 -115.155214 24 2189ft 13kts
16-May-20 18:53 36.095252 -115.153247 25 2189ft 12kts
16-May-20 18:54 36.097870 -115.152257 314 2189ft 3kts
16-May-20 18:55 36.092207 -115.157225 204 2189ft 105kts
16-May-20 18:56 36.049945 -115.181277 201 3953ft 189kts
16-May-20 18:57 36.000834 -115.230170 238 5855ft 264kts
16-May-20 18:58 35.951972 -115.296977 187 7355ft 275kts
16-May-20 18:59 35.878669 -115.263936 149 10625ft 293kts
16-May-20 19:00 35.843616 -115.163998 106 12414ft 357kts
16-May-20 19:01 35.823393 -115.040296 89 14933ft 383kts
16-May-20 19:02 35.834184 -114.905686 84 17222ft 405kts
16-May-20 19:03 35.844653 -114.764067 85 19400ft 423kts
16-May-20 19:04 35.851188 -114.616851 99 21206ft 442kts
16-May-20 19:05 35.795067 -114.481921 126 22853ft 452kts
16-May-20 19:06 35.724725 -114.350336 125 24407ft 465kts
16-May-20 19:07 35.653231 -114.215589 125 25960ft 473kts
16-May-20 19:08 35.579984 -114.078756 125 27427ft 481kts
16-May-20 19:09 35.506345 -113.941797 125 28872ft 482kts
16-May-20 19:10 35.432485 -113.805407 125 28955ft 478kts
16-May-20 19:11 35.358593 -113.669459 125 28963ft 478kts
16-May-20 19:12 35.285509 -113.533930 125 28973ft 478kts
16-May-20 19:13 35.211384 -113.398559 125 28976ft 478kts
16-May-20 19:14 35.137358 -113.263133 125 28996ft 474kts
16-May-20 19:15 35.065291 -113.131490 125 29020ft 464kts
16-May-20 19:16 34.995600 -113.005954 125 28632ft 429kts
16-May-20 19:17 34.927089 -112.882844 125 26106ft 439kts
16-May-20 19:18 34.858868 -112.759433 125 25102ft 439kts
16-May-20 19:19 34.790850 -112.637480 125 24126ft 432kts
16-May-20 19:20 34.722642 -112.516238 127 24080ft 431kts
16-May-20 19:21 34.637545 -112.415298 144 22813ft 426kts
16-May-20 19:22 34.546018 -112.327120 143 21013ft 412kts
16-May-20 19:23 34.457042 -112.243411 151 19281ft 394kts
16-May-20 19:24 34.356716 -112.206485 170 17780ft 371kts
16-May-20 19:25 34.258307 -112.181428 169 16561ft 354kts
16-May-20 19:26 34.162844 -112.156834 168 15194ft 346kts
16-May-20 19:27 34.071581 -112.132143 163 13886ft 325kts
16-May-20 19:28 33.988512 -112.097415 160 12668ft 309kts
16-May-20 19:29 33.907703 -112.064487 160 11418ft 302kts
16-May-20 19:30 33.828828 -112.032463 161 10285ft 300kts
16-May-20 19:31 33.750324 -112.000671 163 9107ft 293kts
16-May-20 19:32 33.675109 -111.970283 163 8371ft 277kts
16-May-20 19:33 33.604117 -111.941569 163 7732ft 267kts
16-May-20 19:34 33.535802 -111.909693 139 7076ft 258kts
16-May-20 19:35 33.533080 -111.833285 48 7020ft 247kts
16-May-20 19:36 33.547606 -111.754899 104 6982ft 255kts
16-May-20 19:37 33.493983 -111.721709 180 6123ft 226kts
16-May-20 19:38 33.435593 -111.719867 181 5133ft 195kts
16-May-20 19:39 33.414877 -111.755892 297 5035ft 180kts
16-May-20 19:40 33.432167 -111.815983 265 4135ft 200kts
16-May-20 19:41 33.430857 -111.878178 268 2945ft 168kts
16-May-20 19:42 33.430812 -111.930159 270 2182ft 153kts
16-May-20 19:43 33.431002 -111.981661 271 1374ft 158kts
16-May-20 19:44 33.431504 -112.012769 323 1143ft 11kts
16-May-20 19:45 33.431862 -112.012891 9 1143ft 1kts
16-May-20 19:46 33.432819 -112.010972 88 1143ft 16kts
16-May-20 19:47 33.432831 -112.005243 90 1143ft 19kts
16-May-20 19:48 33.432839 -111.998547 90 1143ft 19kts
16-May-20 19:49 33.433454 -111.996444 358 1143ft 0kts
16-May-20 19:51 33.433458 -111.996445 358 1143ft 0kts
16-May-20 19:52 33.433458 -111.996445 358 1143ft 0kts
16-May-20 19:53 33.433458 -111.996445 358 1143ft 0kts
16-May-20 19:54 33.433458 -111.996445 358 1143ft 0kts
16-May-20 19:55 33.433458 -111.996445 358 1143ft 0kts
16-May-20 19:56 33.433458 -111.996445 358 1143ft 0kts
16-May-20 19:57 33.433458 -111.996445 358 1143ft 0kts
16-May-20 19:58 33.433458 -111.996445 358 1143ft 0kts

Navigation Log

Ident Type
Flight plan parsing failed, navigation log unavailable